x

Shumagin Islands - 85nm South Of Sand Point, Ak (46075) Wave Buoy

3:50 - Tue 2nd Sep 2014 All times are UTC.

  • Sig Wave height 3.3ft
  • Peak Period 12s
  • Average Period 9s
  • Wind
    7mph, 9mph gusts
  • Sea Temp 57°f
  • Air Temp 54°f
  • Sea Pressure 1022.5mb

More Historic Weather Station data

Upgrade to MSW Pro to gain access to the past 30 days of data for over 8000 Wavebouys and Weather Stations around the globe.

Join Pro

Comparision Forecast

View Surf forecast
   
mar. 09/02 3:50 3.5ft 12s 9s 7 9 mph 1022.5mb 57f 54f
2:50 3ft 12s 9s 4 7 mph 1023mb 57f 54f
1:50 3.5ft 14s 9s 4
mph
1023.3mb 58f 54f
12:50 3.5ft 14s 9s 4
mph
1023.9mb 58f 54f
11:50 3ft 14s 8s 2
mph
1024.2mb 58f 55f
10:50 3.5ft 12s 8s 2
mph
1024.4mb 58f 55f
9:50 3.5ft 12s 8s 2
mph
1024.9mb 58f 55f
8:50 3.5ft 13s 8s  -  2 mph 1024.8mb 58f 55f
7:50 3.5ft 13s 8s 2
mph
1024.8mb 58f 55f
6:50 3.5ft 13s 7s 2 4 mph 1024.8mb 58f 55f
5:50 3.5ft 13s 8s 4
mph
1024.5mb 58f 55f
4:50 3.5ft 13s 8s 2 4 mph 1024.4mb 59f 56f
3:50 3.5ft 13s 7s 2 4 mph 1024.5mb 60f 56f
2:50 3.5ft 12s 7s 4
mph
1024.5mb 59f 56f
1:50 3.5ft 13s 6s 4
mph
1024.7mb 59f 56f
12:50 3ft 14s 6s 2
mph
1024.9mb 59f 56f
lun. 09/01 11:50 3.5ft 13s 6s 2
mph
1025.1mb 58f 55f
10:50 4ft 13s 6s 2 4 mph 1025.1mb 58f 55f
9:50 4ft 13s 6s 2 4 mph 1025.2mb 58f 55f
8:50 4.5ft 13s 6s 4 7 mph 1024.8mb 57f 55f
7:50 4.5ft 14s 6s 7
mph
1024.4mb 57f 55f
6:50 4.5ft 14s 6s 7 9 mph 1024mb 57f 55f
5:50 4.5ft 14s 6s 9 11 mph 1023.5mb 57f 55f
4:50 4.5ft 14s 6s 9 11 mph 1022.8mb 57f 55f
3:50 4.5ft 13s 5s 13 16 mph 1022.3mb 57f 55f
2:50 4.5ft 14s 6s 13 16 mph 1021.9mb 57f 55f
1:50 4.5ft 13s 5s 13 16 mph 1021.6mb 57f 55f
12:50 5ft 14s 6s 16 18 mph 1021.3mb 57f 55f
11:50 5ft 14s 6s 16 18 mph 1021.1mb 57f 55f
10:50 5.5ft 14s 6s 16 18 mph 1020.8mb 57f 55f
9:50 5ft 13s 5s 18 20 mph 1020.3mb 57f 55f
8:50 5ft 14s 5s 16 18 mph 1019.6mb 57f 56f
7:50 5ft 14s 6s 16 20 mph 1019.2mb 57f 56f
6:50 5ft 14s 6s 13 16 mph 1018.5mb 57f 56f
5:50 4.5ft 14s 7s 13 16 mph 1017.6mb 57f 56f
4:50 5ft 15s 7s 9 11 mph 1017mb 57f 56f
3:50 5ft 14s 7s 9 11 mph 1016.3mb 57f 56f
2:50 5ft 14s 7s 7 9 mph 1015.8mb 57f 56f
1:50 5ft 15s 6s 7 9 mph 1015.5mb 57f 55f
12:50 5.5ft 14s 7s 9 11 mph 1015.3mb 57f 55f
dim. 08/31 11:50 6ft 8s 7s 9 11 mph 1015mb 57f 55f
10:50 6ft 8s 7s 9 13 mph 1014.6mb 57f 55f
9:50 6ft 14s 7s 11 13 mph 1014.3mb 57f 55f
8:50 6ft 8s 7s 11 13 mph 1013.9mb 57f 55f
7:50 6ft 15s 7s 11 13 mph 1013.5mb 57f 56f
6:50 6ft 15s 7s 11 13 mph 1012.9mb 56f 55f
5:50 6ft 8s 7s 7 9 mph 1012.4mb 56f 56f
4:50 6ft 15s 7s 7 9 mph 1011.7mb 56f 56f
3:50 6ft 15s 6s 9 11 mph 1011.2mb 56f 55f
2:50 6ft 7s 6s 9 11 mph 1010.7mb 56f 55f
1:50 6ft 8s 6s 9 11 mph 1010.5mb 56f 55f
12:50 6ft 7s 6s 13 16 mph 1010.1mb 56f 55f
11:50 7ft 7s 6s 13 16 mph 1009.6mb 55f 55f
10:50 6.5ft 8s 6s 13 18 mph 1009.3mb 56f 55f
9:50 7ft 8s 6s 16 18 mph 1009mb 56f 55f
8:50 7ft 7s 6s 16 18 mph 1008.3mb 56f 56f
7:50 8ft 8s 6s 16 20 mph 1007.8mb 56f 56f
6:50 8ft 8s 6s 18 22 mph 1006.7mb 56f 56f
5:50 8ft 7s 6s 20 25 mph 1005.9mb 57f 56f
4:50 8ft 8s 6s 20 25 mph 1005.2mb 57f 56f
3:50 8ft 8s 6s 20 25 mph 1004.4mb 57f 56f
2:50 8.5ft 8s 6s 22 27 mph 1003.7mb 57f 56f
1:50 9ft 8s 6s 25 31 mph 1003.1mb 56f 56f
12:50 9ft 8s 6s 27 31 mph 1002.3mb 56f 55f
sam. 08/30 11:50 8ft 7s 6s 27 31 mph 1002.1mb 57f 55f
10:50 7.5ft 7s 6s 27 31 mph 1001.6mb 57f 56f
9:50 7ft 6s 5s 22 27 mph 1001mb 57f 56f
8:50 6ft 8s 5s 27 34 mph 1000mb 57f 56f
7:50 6.5ft 6s 6s 22 27 mph 999.2mb 57f 56f
6:50 6.5ft 7s 6s 16 18 mph 998.9mb 57f 56f
5:50 6.5ft 16s 6s 13 18 mph 999mb 57f 56f
4:50 6ft 8s 6s 16 18 mph 999.2mb 57f 55f
3:50 5ft 8s 5s 18 20 mph 1000.1mb 57f 55f
2:50 5ft 8s 5s 16 20 mph 1001mb 57f 55f
1:50 5ft 8s 5s 18 20 mph 1001.7mb 57f 56f
12:50 5ft 8s 5s 16 18 mph 1003mb 57f 56f
11:50 4.5ft 8s 5s 16 18 mph 1004mb 57f 56f
10:50 5.5ft 9s 6s 13 18 mph 1005.1mb 57f 56f
9:50 5ft 16s 6s 13 16 mph 1006mb 57f 56f
8:50 4.5ft 8s 6s 11 13 mph 1006.6mb 57f 56f
7:50 4ft 8s 6s 11 16 mph 1007.3mb 57f 56f
6:50 4ft 9s 6s 11 16 mph 1008mb 57f 56f
5:50 4ft 8s 6s 9 11 mph 1008.3mb 57f 56f
4:50 3ft 8s 6s 11 13 mph 1008.7mb 57f 56f
3:50 3.5ft 8s 7s 11 16 mph 1009.1mb 57f 55f
2:50 3.5ft 8s 7s 11 13 mph 1009.1mb 57f 55f
1:50 3ft 9s 7s 9 11 mph 1009.3mb 57f 55f
12:50 3ft 7s 6s 7 9 mph 1009.8mb 57f 54f
ven. 08/29 11:50 2.5ft 8s 5s 9 11 mph 1009.9mb 57f 54f
10:50 3ft 8s 5s 9 11 mph 1009.7mb 56f 56f
9:50 3.5ft 15s 6s 4 7 mph 1009.9mb 56f 56f
8:50 3.5ft 8s 6s 7
mph
1010mb 57f 56f
7:50 3.5ft 8s 6s 4 7 mph 1010.1mb 56f 56f
6:50 4ft 7s 6s 4 7 mph 1010.5mb 56f 56f
5:50 4ft 8s 6s 7
mph
1010.7mb 56f 56f